aviador You're here:

SCTN Decoded Metar

CHAITEN in CHILE
Report Time2017-09-20 16:00:00
UTC Time2017-09-20 16:35:04
Flight Rules vfr VFR
Wind340° at 10 kt
W.Decomp.*RWY 31: 9.4 kt HW 3.4 kt RCW
W.Rank340° ranks 5
Current wind is above 340° avg. (9.9)
Visibility9999 m
Phenomena:N/A
Clouds:Few 015 Hf
Overcast 040 Hf
Expected CloudBase > 1,600 ft AGL from Temp-Dew spread
Ceiling4,000 ft
Temp11°C (ISA -4)
Dew Point07°C (77% RH)
AAT6.7°C
QNH1027 hPa
Density Alt-797 ft
Elevation13 ft
Report Wrong Elevation
Raw Report
METAR SCTN 201600Z 34010KT 9999 FEW015 OVC040 11/07 Q1027=

Extra information for SCTN:More info

Metar Taf Metar & Taf Last 4 Metars F.Rules Stats Wind Profile Meteogram Temp Stats Airport Information Weather charts Add Link Nearby VenuesMetar ALERT Operation Metar Decoded Social comments